KLHM/LHM METAR and TAF weather

Enter ICAO airport designator
Station Type Date Time Source
KLHM METAR 2019/10/15 19:15 UTC NOAA

KLHM 151915Z AUTO 18003KT 10SM CLR 22/01 A3009 RMK AO1


Station Type Date Time Source
KLHM Decoded METAR 2019/10/15 19:15 UTC NOAA

Station name not available
Oct 15, 2019 - 03:15 PM EDT / 2019.10.15 1915 UTC
Wind: from the S (180 degrees) at 3 MPH (3 KT):0
Visibility: 10 mile(s):0
Sky conditions: clear
Temperature: 71 F (22 C)
Dew Point: 33 F (1 C)
Relative Humidity: 24%
Pressure (altimeter): 30.09 in. Hg (1018 hPa)
ob: KLHM 151915Z AUTO 18003KT 10SM CLR 22/01 A3009 RMK AO1
cycle: 19

Station Type Date Time Source
KLHM TAF UTC NOAA

Error!

Example: see airport list